createdAt,value
2022-07-28T00:14:38.158Z,22.23
2022-07-28T00:29:54.095Z,21.98
2022-07-28T00:45:11.105Z,21.79
2022-07-28T01:00:28.038Z,21.52
2022-07-28T01:15:45.085Z,21.28
2022-07-28T01:31:01.082Z,21.08
2022-07-28T01:46:17.061Z,20.83
2022-07-28T02:01:32.972Z,20.6
2022-07-28T02:16:49.912Z,20.34
2022-07-28T02:32:05.847Z,20.15
2022-07-28T02:47:22.822Z,19.95
2022-07-28T03:02:39.828Z,19.71
2022-07-28T03:17:57.769Z,19.86
2022-07-28T03:33:13.759Z,19.55
2022-07-28T03:48:29.703Z,19.46
2022-07-28T04:03:45.674Z,19.24
2022-07-28T04:19:02.633Z,19.18
2022-07-28T04:34:18.603Z,18.96
2022-07-28T04:49:35.675Z,18.79
2022-07-28T05:04:52.606Z,19.83
2022-07-28T05:20:09.525Z,20.39
2022-07-28T05:35:25.474Z,21.03
2022-07-28T05:50:41.459Z,21.32
2022-07-28T06:05:59.404Z,21.25
2022-07-28T06:21:16.393Z,21.81
2022-07-28T06:36:32.358Z,22.4
2022-07-28T06:51:48.323Z,23.31
2022-07-28T07:07:14.861Z,23.99
2022-07-28T07:22:23.297Z,24.28
2022-07-28T07:37:40.222Z,24.68
2022-07-28T07:52:56.219Z,25.27
2022-07-28T08:08:12.158Z,25.9
2022-07-28T08:23:29.153Z,26.62
2022-07-28T09:24:36.033Z,29.48
2022-07-28T09:39:52.989Z,29.22
2022-07-28T09:55:08.959Z,28.38
2022-07-28T10:10:24.933Z,29.81
2022-07-28T10:25:41.893Z,30.95
2022-07-28T10:40:57.856Z,32.27
2022-07-28T10:56:13.822Z,33.2
2022-07-28T11:11:30.798Z,33.39
2022-07-28T11:26:48.755Z,34.07
2022-07-28T11:42:05.739Z,34.3
2022-07-28T11:57:21.667Z,34.39
2022-07-28T12:12:37.674Z,34.31
2022-07-28T12:27:54.647Z,34.19
2022-07-28T12:43:10.609Z,34.04
2022-07-28T12:58:27.550Z,34.13
2022-07-28T13:13:50.952Z,33.46
2022-07-28T13:29:02.485Z,33.7
2022-07-28T13:44:18.557Z,33.21
2022-07-28T13:59:36.258Z,33.1
2022-07-28T14:14:53.393Z,34.12
2022-07-28T14:30:12.379Z,34.08
2022-07-28T14:45:26.445Z,34.61
2022-07-28T15:00:42.300Z,33.24
2022-07-28T15:15:59.323Z,33.76
2022-07-28T15:31:15.271Z,35.11
2022-07-28T15:31:56.195Z,35.11
2022-07-28T15:46:32.371Z,34.53
2022-07-28T16:01:48.219Z,35.09
2022-07-28T16:17:05.147Z,35
2022-07-28T16:32:22.157Z,33.26
2022-07-28T16:47:39.089Z,34.64
2022-07-28T17:02:55.092Z,33.75
2022-07-28T17:18:12.414Z,32.73
2022-07-28T17:33:28.031Z,31.85
2022-07-28T17:48:44.124Z,30.95
2022-07-28T18:04:00.956Z,31.07
2022-07-28T18:19:17.905Z,31.17
2022-07-28T18:34:34.948Z,30.57
2022-07-28T18:49:51.850Z,30.26
2022-07-28T19:05:07.810Z,29.85
2022-07-28T19:20:24.814Z,29.61
2022-07-28T19:35:40.748Z,29.36
2022-07-28T19:50:56.731Z,29.22
2022-07-28T20:06:13.683Z,29.08
2022-07-28T20:21:38.373Z,28.64
2022-07-28T20:36:48.629Z,28.52
2022-07-28T20:52:04.586Z,28.38
2022-07-28T21:07:59.562Z,28.03
2022-07-28T21:22:37.567Z,27.8
2022-07-28T21:37:53.497Z,27.19
2022-07-28T21:53:14.021Z,26.57
2022-07-28T22:08:26.429Z,26.3
2022-07-28T22:23:44.439Z,25.88
2022-07-28T22:39:01.401Z,25.94
2022-07-28T22:54:17.845Z,25.32
2022-07-28T23:09:33.342Z,24.73
2022-07-28T23:24:50.303Z,24.78
2022-07-28T23:40:06.278Z,24.67
2022-07-28T23:55:22.246Z,24.31
